Bensch Ranch, Arizona
Current Conditions -  °F | °C
As of 11:35 AM on Thursday 27 Nov 2014 (Local Time) from KPAN Reporting Station
Clear Clear  
Wind Chill: 68°   Ceiling: Unl
Heat Index: 68°   Visibility: 10mi
Dew Point: 14°   Wind: 0mph
Humidity: 12%   Direction: NA
Pressure: 30.39"   Gusts: NA
Location:  34.2564°N, 111.978°W
Report Text: KPAN 271835Z AUTO 00000KT 10SM CLR 20/M10 A3039 RMK AO2
Loading
Personal Weather Stations






























Interactive Weather Map New forecast layout! Learn more

10-Day Weather Forecast

Advertisements
Track Severe Weather on mobile